DLH343 EDDS-SAEZ
Flight info
| Callsign | DLH343 |
|---|---|
| Flight time | N/A |
| Altitude | 29000 |
| Route | TEDGO1K TEDGO N869 NINTU UN869 MEBAK/N0459F280 UP860 MADOT UM976 MOPEM/N0468F290 DCT VELIN DCT NENEM P75 NEA L14 ADINO/N0428F230 L14 ELVAR UN975 SNT/N0494F310 Q205 NELSO N741 NORED/N0493F320 N741 EDUMO UN741 MERUD/N0492F340 UN741 JOBER/N0486F360 UN741 GEVMI/N0477F380 UM654 BIXAN UN741 PAPIX PAPIX6B |
| Aircraft | A343/H-SDE2E3FGHIJ4J5M1RWXY/LB1D1 |
Departure
| Time | 2026-05-01 07:40 |
|---|---|
| Airport | Stuttgart Airport (EDDS) |
Arrival
| Time | N/A |
|---|---|
| Airport | Ezeiza International Airport - Ministro Pistarini (SAEZ) |
| Time | Latitude | Longitude | Altitude | Speed | Heading |
|---|---|---|---|---|---|
| 2026-05-01 07:23 | 48.68823 | 9.19785 | 1289 ft | 0 kts | 164° |
| 2026-05-01 07:36 | 48.68822 | 9.19786 | 1289 ft | 0 kts | 164° |
| 2026-05-01 07:37 | 48.68767 | 9.19844 | 1289 ft | 5 kts | 112° |
| 2026-05-01 07:37 | 48.68766 | 9.19891 | 1289 ft | 4 kts | 90° |
| 2026-05-01 07:37 | 48.68760 | 9.19921 | 1289 ft | 3 kts | 112° |
| 2026-05-01 07:38 | 48.68737 | 9.19955 | 1289 ft | 8 kts | 150° |
| 2026-05-01 07:38 | 48.68658 | 9.19999 | 1289 ft | 13 kts | 165° |
| 2026-05-01 07:38 | 48.68608 | 9.20234 | 1289 ft | 9 kts | 70° |
| 2026-05-01 07:39 | 48.68673 | 9.20526 | 1289 ft | 56 kts | 73° |
| 2026-05-01 07:39 | 48.68830 | 9.21364 | 1289 ft | 108 kts | 74° |
| 2026-05-01 07:39 | 48.69387 | 9.24248 | 1627 ft | 162 kts | 77° |
| 2026-05-01 07:40 | 48.69697 | 9.25975 | 2100 ft | 175 kts | 75° |
| 2026-05-01 07:40 | 48.70029 | 9.27777 | 2397 ft | 185 kts | 76° |
| 2026-05-01 07:40 | 48.70247 | 9.29744 | 2576 ft | 198 kts | 99° |
| 2026-05-01 07:40 | 48.69543 | 9.31522 | 2957 ft | 205 kts | 142° |
| 2026-05-01 07:41 | 48.68279 | 9.32496 | 3610 ft | 209 kts | 160° |
| 2026-05-01 07:41 | 48.66782 | 9.32881 | 3902 ft | 229 kts | 175° |
| 2026-05-01 07:41 | 48.63657 | 9.30976 | 4764 ft | 267 kts | 225° |
| 2026-05-01 07:42 | 48.62637 | 9.28597 | 5130 ft | 272 kts | 240° |
| 2026-05-01 07:42 | 48.61757 | 9.26034 | 5725 ft | 277 kts | 239° |
| 2026-05-01 07:42 | 48.60781 | 9.23561 | 6395 ft | 279 kts | 235° |
| 2026-05-01 07:42 | 48.59690 | 9.21105 | 7030 ft | 284 kts | 233° |
| 2026-05-01 07:43 | 48.58535 | 9.18665 | 7624 ft | 287 kts | 232° |
| 2026-05-01 07:43 | 48.57349 | 9.16220 | 8235 ft | 290 kts | 232° |
| 2026-05-01 07:43 | 48.54943 | 9.11249 | 9428 ft | 296 kts | 232° |
| 2026-05-01 07:44 | 48.52467 | 9.06235 | 10546 ft | 303 kts | 226° |
| 2026-05-01 07:44 | 48.49320 | 9.01686 | 11019 ft | 329 kts | 220° |
| 2026-05-01 07:45 | 48.47563 | 8.99388 | 11280 ft | 341 kts | 219° |
| 2026-05-01 07:45 | 48.45714 | 8.97037 | 11527 ft | 353 kts | 219° |
| 2026-05-01 07:45 | 48.43800 | 8.94622 | 11733 ft | 365 kts | 219° |
| 2026-05-01 07:45 | 48.41822 | 8.92127 | 11968 ft | 377 kts | 219° |
| 2026-05-01 07:46 | 48.39794 | 8.89562 | 12294 ft | 385 kts | 219° |
| 2026-05-01 07:46 | 48.37734 | 8.86948 | 12716 ft | 390 kts | 219° |
| 2026-05-01 07:46 | 48.33575 | 8.81655 | 13616 ft | 398 kts | 219° |
| 2026-05-01 07:47 | 48.31453 | 8.78954 | 14116 ft | 402 kts | 219° |
| 2026-05-01 07:47 | 48.29314 | 8.76233 | 14587 ft | 404 kts | 219° |
| 2026-05-01 07:47 | 48.27164 | 8.73504 | 15059 ft | 407 kts | 219° |
| 2026-05-01 07:47 | 48.25005 | 8.70764 | 15531 ft | 409 kts | 219° |
| 2026-05-01 07:48 | 48.20627 | 8.65221 | 16483 ft | 414 kts | 219° |
| 2026-05-01 07:48 | 48.18411 | 8.62421 | 16950 ft | 417 kts | 219° |
| 2026-05-01 07:48 | 48.16187 | 8.59615 | 17427 ft | 419 kts | 218° |
| 2026-05-01 07:49 | 48.13948 | 8.56786 | 17871 ft | 423 kts | 219° |
| 2026-05-01 07:49 | 48.09462 | 8.50931 | 18055 ft | 443 kts | 220° |
| 2026-05-01 07:49 | 48.07592 | 8.48421 | 18475 ft | 428 kts | 219° |
| 2026-05-01 07:50 | 48.05364 | 8.45430 | 17354 ft | 439 kts | 221° |
| 2026-05-01 07:50 | 48.01531 | 8.39294 | 18176 ft | 293 kts | 253° |